• Join FlightAware (Why Join?)
  • Login
  • US Flag 
07:58AM EST


 

Airport Tracker/Info


-or-


 

Live Flight TrackerFlight Track Log ✈ TAM3275 ✈ 01-Sep-2013 ✈ SBRP / RAO - SBSP / CGH

Flight Track Log - Related Links

Times and Time Zones

All times are in EDT time to prevent confusion due to time zone crossing. See the TAM3275 flight status page for this flight to view local times or setup timezone preferences in your user account.

Time Position Orientation Groundspeed Altitude Reporting Facility
EDT Latitude Longitude Course Direction KTS MPH feet Rate Location/Type
08:02PM -21.1320 -47.7750 155° Southeast 110 127  Level FlightAware
08:02PM -21.1440 -47.7710 163° South 156 180 2,000 3,767 Climbing FlightAware
08:03PM -21.1600 -47.7670 167° South 166 191 2,700 1,463 Climbing FlightAware
08:03PM -21.1700 -47.7690 191° South 187 215 3,000 1,161 Climbing FlightAware
08:03PM -21.1820 -47.7810 223° Southwest 211 243 3,300 1,714 Climbing FlightAware
08:04PM -21.2010 -47.8020 226° Southwest 242 278 4,000 2,318 Climbing FlightAware
08:04PM -21.2170 -47.8200 226° Southwest 250 288 5,000 3,000 Climbing FlightAware
08:04PM -21.2280 -47.8310 223° Southwest 254 292 5,600 3,000 Climbing FlightAware
08:04PM -21.2340 -47.8340 205° Southwest 255 293 5,900 3,200 Climbing FlightAware
08:05PM -21.2600 -47.8480 207° Southwest 257 296 7,200 2,930 Climbing FlightAware
08:05PM -21.2800 -47.8580 205° Southwest 264 304 8,000 2,167 Climbing FlightAware
08:05PM -21.2980 -47.8680 207° Southwest 281 323 8,500 2,483 Climbing FlightAware
08:06PM -21.3150 -47.8710 189° South 281 323 9,200 3,000 Climbing FlightAware
08:06PM -21.3610 -47.8630 171° South 288 331 10,900 2,000 Climbing FlightAware
08:07PM -21.3990 -47.8560 170° South 325 374 11,400 1,455 Climbing FlightAware
08:07PM -21.4630 -47.8430 169° South 361 415 12,500 2,027 Climbing FlightAware
08:08PM -21.5270 -47.8300 169° South 377 434 13,900 1,890 Climbing FlightAware
08:08PM -21.5850 -47.8180 169° South 399 459 14,800 2,057 Climbing FlightAware
08:09PM -21.6530 -47.8040 169° South 405 466 16,300 2,261 Climbing FlightAware
08:10PM -21.7150 -47.7910 169° South 416 479 17,400 2,057 Climbing FlightAware
08:10PM -21.7860 -47.7760 169° South 421 484 18,700 1,862 Climbing FlightAware
08:11PM -21.8200 -47.7690 169° South 425 489 19,200 1,612 Climbing FlightAware
08:11PM -21.9070 -47.7510 169° South 434 499 20,500 1,778 Climbing FlightAware
08:12PM -21.9870 -47.7340 169° South 445 512 21,600 1,886 Climbing FlightAware
08:13PM -22.0560 -47.7200 169° South 446 513 22,700 1,151 Climbing FlightAware
08:13PM -22.1360 -47.7030 169° South 445 512 23,000 257 Climbing FlightAware
08:14PM -22.1750 -47.6950 169° South 435 501 23,000  Level FlightAware
08:14PM -22.2700 -47.6750 169° South 433 498 23,000  Level FlightAware
08:15PM -22.3400 -47.6600 169° South 434 499 23,000  Level FlightAware
08:16PM -22.4150 -47.6450 170° South 434 499 23,000  Level FlightAware
08:16PM -22.4720 -47.6330 169° South 435 501 23,000 -176 Level FlightAware
08:17PM -22.5490 -47.6160 168° South 443 510 22,800 -640 Descending FlightAware
08:17PM -22.6250 -47.6000 169° South 447 514 22,200 -1,393 Descending FlightAware
08:18PM -22.6610 -47.5840 158° South 448 516 21,500 -2,262 Descending FlightAware
08:18PM -22.7190 -47.5430 147° Southeast 444 511 19,900 -2,506 Descending FlightAware
08:19PM -22.7950 -47.4890 147° Southeast 423 487 18,200 -2,630 Descending FlightAware
08:19PM -22.8520 -47.4490 147° Southeast 408 470 16,700 -2,211 Descending FlightAware
08:20PM -22.9170 -47.4040 147° Southeast 405 466 15,400 -1,938 Descending FlightAware
08:21PM -22.9550 -47.3770 147° Southeast 404 465 14,600 -1,765 Descending FlightAware
08:21PM -23.0180 -47.3330 147° Southeast 386 444 13,400 -1,600 Descending FlightAware
08:22PM -23.0900 -47.2830 147° Southeast 349 402 12,200 -1,541 Descending FlightAware
08:23PM -23.1190 -47.2620 146° Southeast 325 374 11,500 -1,147 Descending FlightAware
08:23PM -23.1710 -47.2190 143° Southeast 302 348 10,900 -957 Descending FlightAware
08:24PM -23.2010 -47.1910 139° Southeast 286 329 10,400 -806 Descending FlightAware
08:24PM -23.2360 -47.1580 139° Southeast 292 336 10,000 -655 Descending FlightAware
08:25PM -23.2590 -47.1370 140° Southeast 279 321 9,800 -766 Descending FlightAware
08:25PM -23.2880 -47.1100 139° Southeast 265 305 9,400 -1,174 Descending FlightAware
08:25PM -23.3030 -47.0960 139° Southeast 271 312 8,900 -1,920 Descending FlightAware
08:26PM -23.3090 -47.0870 126° Southeast 278 320 8,600 -1,400 Descending FlightAware
08:26PM -23.3230 -47.0610 120° Southeast 285 328 8,200 -977 Descending FlightAware
08:26PM -23.3370 -47.0330 119° Southeast 285 328 7,900 -900 Descending FlightAware
08:27PM -23.3490 -47.0110 121° Southeast 283 326 7,600 -1,143 Descending FlightAware
08:27PM -23.3640 -46.9810 119° Southeast 281 323 7,100 -1,024 Descending FlightAware
08:27PM -23.3740 -46.9610 119° Southeast 281 323 6,900 -857 Descending FlightAware
08:28PM -23.3900 -46.9290 119° Southeast 281 323 6,500 -706 Descending FlightAware
08:28PM -23.4070 -46.8960 119° Southeast 282 325 6,300 -490 Descending FlightAware
08:28PM -23.4210 -46.8710 121° Southeast 273 314 6,100 -409 Descending FlightAware
08:29PM -23.4340 -46.8440 118° Southeast 255 293 6,000 -439 Descending FlightAware
08:29PM -23.4450 -46.8230 120° Southeast 247 284 5,800 -500 Descending FlightAware
08:29PM -23.4540 -46.8050 119° Southeast 239 275 5,700 -409 Descending FlightAware
08:30PM -23.4690 -46.7770 120° Southeast 216 249 5,500 -367 Descending FlightAware
08:30PM -23.4800 -46.7600 125° Southeast 203 234 5,400 -480 Descending FlightAware
08:30PM -23.4830 -46.7570 137° Southeast 201 231 5,300 -692 Descending FlightAware
08:31PM -23.4990 -46.7450 145° Southeast 187 215 5,100 -750 Descending FlightAware
08:31PM -23.5120 -46.7360 148° Southeast 186 214 4,800 -857 Descending FlightAware
08:31PM -23.5280 -46.7240 145° Southeast 164 189 4,500 -769 Descending FlightAware
08:32PM -23.5360 -46.7190 150° Southeast 152 175 4,300 -1,000 Descending FlightAware
08:32PM -23.5460 -46.7120 147° Southeast 136 157 4,000 -667 Descending FlightAware
08:32PM -23.5550 -46.7060 149° Southeast 130 150 3,900 -453 Descending FlightAware
08:33PM -23.5710 -46.6950 148° Southeast 130 150 3,600 -655 Descending FlightAware
08:33PM -23.5850 -46.6860 149° Southeast 130 150 3,300 -698 Descending FlightAware
08:33PM -23.5930 -46.6790 141° Southeast 131 151 3,100 -750 Descending FlightAware
08:34PM -23.6050 -46.6720 152° Southeast 131 151 2,800 -686 Descending FlightAware
08:34PM -23.6130 -46.6660 146° Southeast 134 154 2,700 -486 Descending FlightAware
08:34PM -23.6200 -46.6610 147° Southeast 137 158 2,500 -486 Descending FlightAware
08:35PM -23.6260 -46.6570 149° Southeast 137 158 2,400 -140 Descending FlightAware
08:35PM -23.6170 -46.6440 53° Northeast 137 158 2,400  Level FlightAware
08:36PM -23.6290 -46.6560 222° Southwest -2,149 Descending FlightAware
08:39PM -23.6290 -46.6570 180° South  Level FlightAware